createdAt,value
2023-05-05T00:00:03.146Z,47.64
2023-05-05T00:01:02.597Z,47.88
2023-05-05T00:02:02.634Z,47.26
2023-05-05T00:03:02.655Z,47.39
2023-05-05T00:04:02.626Z,47.84
2023-05-05T00:05:02.605Z,47.39
2023-05-05T00:06:02.630Z,47.11
2023-05-05T00:07:02.611Z,46.70
2023-05-05T00:08:02.611Z,47.17
2023-05-05T00:09:02.606Z,47.37
2023-05-05T00:10:02.623Z,47.05
2023-05-05T00:11:02.626Z,46.82
2023-05-05T00:12:02.615Z,46.50
2023-05-05T00:13:02.657Z,46.50
2023-05-05T00:14:02.618Z,47.35
2023-05-05T00:15:02.597Z,47.11
2023-05-05T00:16:02.601Z,46.73
2023-05-05T00:17:02.610Z,46.30
2023-05-05T00:18:02.649Z,46.03
2023-05-05T00:19:02.636Z,46.48
2023-05-05T00:20:02.590Z,46.63
2023-05-05T00:21:02.595Z,47.31
2023-05-05T00:22:02.583Z,48.24
2023-05-05T00:23:02.588Z,48.74
2023-05-05T00:24:02.589Z,48.37
2023-05-05T00:25:02.585Z,48.22
2023-05-05T00:26:02.625Z,48.58
2023-05-05T00:27:02.633Z,48.32
2023-05-05T00:28:02.664Z,48.22
2023-05-05T00:29:02.708Z,48.74
2023-05-05T00:30:02.732Z,48.32
2023-05-05T00:31:02.768Z,48.64
2023-05-05T00:32:02.787Z,48.87
2023-05-05T00:33:02.977Z,48.41
2023-05-05T00:34:02.793Z,47.91
2023-05-05T00:35:02.780Z,47.43
2023-05-05T00:36:02.778Z,47.30
2023-05-05T00:37:02.762Z,47.56
2023-05-05T00:38:02.806Z,48.10
2023-05-05T00:39:02.772Z,48.63
2023-05-05T00:40:02.778Z,48.45
2023-05-05T00:41:02.793Z,48.92
2023-05-05T00:42:02.821Z,48.92
2023-05-05T00:43:02.932Z,49.15
2023-05-05T00:44:02.985Z,49.00
2023-05-05T00:45:02.939Z,48.32
2023-05-05T00:46:03.047Z,48.52
2023-05-05T00:47:03.004Z,48.95
2023-05-05T00:48:03.074Z,48.25
2023-05-05T00:49:03.122Z,48.54
2023-05-05T00:50:03.109Z,48.45
2023-05-05T00:51:03.138Z,48.79
2023-05-05T00:52:03.153Z,49.43
2023-05-05T00:53:03.193Z,49.33
2023-05-05T00:54:03.215Z,49.67
2023-05-05T00:55:03.274Z,48.52
2023-05-05T00:56:03.300Z,48.96
2023-05-05T00:57:03.329Z,49.24
2023-05-05T00:58:03.364Z,50.04
2023-05-05T00:59:03.402Z,50.33
2023-05-05T01:00:03.450Z,50.37
2023-05-05T01:01:03.494Z,49.95
2023-05-05T01:02:03.574Z,50.00
2023-05-05T01:03:03.739Z,50.00
2023-05-05T01:04:03.778Z,50.12
2023-05-05T01:05:03.727Z,50.02
2023-05-05T01:06:03.788Z,49.48
2023-05-05T01:07:03.884Z,48.80
2023-05-05T01:08:03.903Z,48.31
2023-05-05T01:09:03.955Z,46.82
2023-05-05T01:10:18.216Z,45.39
2023-05-05T01:11:04.969Z,45.81
2023-05-05T01:12:03.943Z,45.03
2023-05-05T01:13:04.030Z,44.89
2023-05-05T01:14:03.925Z,44.89
2023-05-05T01:15:03.919Z,44.66
2023-05-05T01:16:03.927Z,44.63
2023-05-05T01:17:03.893Z,44.89
2023-05-05T01:18:03.944Z,44.60
2023-05-05T01:19:03.882Z,45.41
2023-05-05T01:20:03.871Z,45.64
2023-05-05T01:21:03.833Z,48.10
2023-05-05T01:22:03.833Z,47.43
2023-05-05T01:23:03.825Z,48.63
2023-05-05T01:24:03.812Z,48.32
2023-05-05T01:25:03.816Z,49.06
2023-05-05T01:26:03.858Z,48.90
2023-05-05T01:27:03.891Z,49.33
2023-05-05T01:28:03.944Z,50.01
2023-05-05T01:29:04.017Z,49.87
2023-05-05T01:30:04.056Z,49.29
2023-05-05T01:31:04.075Z,49.67
2023-05-05T01:32:04.178Z,49.46
2023-05-05T01:33:04.147Z,49.84
2023-05-05T01:34:04.180Z,49.62
2023-05-05T01:35:04.224Z,48.88
2023-05-05T01:36:04.214Z,48.91
2023-05-05T01:37:04.224Z,49.55
2023-05-05T01:38:04.249Z,48.50
2023-05-05T01:39:04.270Z,48.20
2023-05-05T01:40:04.359Z,49.29
2023-05-05T01:41:04.310Z,48.84
2023-05-05T01:42:04.339Z,49.31
2023-05-05T01:43:04.382Z,49.61
2023-05-05T01:44:04.405Z,49.47
2023-05-05T01:45:04.436Z,49.92
2023-05-05T01:46:04.516Z,49.92
2023-05-05T01:47:04.515Z,50.18
2023-05-05T01:48:04.593Z,49.90
2023-05-05T01:49:04.599Z,49.89
2023-05-05T01:50:04.645Z,49.72
2023-05-05T01:51:04.664Z,49.62
2023-05-05T01:52:04.691Z,50.40
2023-05-05T01:53:04.730Z,50.86
2023-05-05T01:54:04.765Z,50.83
2023-05-05T01:55:04.809Z,50.96
2023-05-05T01:56:04.872Z,50.67
2023-05-05T01:57:04.935Z,50.68
2023-05-05T01:58:05.022Z,50.30
2023-05-05T01:59:05.052Z,49.80
2023-05-05T02:00:05.148Z,49.29
2023-05-05T02:01:05.166Z,49.20
2023-05-05T02:02:05.254Z,49.52
2023-05-05T02:03:05.305Z,49.18
2023-05-05T02:04:05.322Z,48.89
2023-05-05T02:05:05.374Z,47.93
2023-05-05T02:06:05.433Z,47.36
2023-05-05T02:07:05.476Z,48.26
2023-05-05T02:08:05.526Z,48.41
2023-05-05T02:09:05.558Z,48.45
2023-05-05T02:10:05.686Z,49.30
2023-05-05T02:11:05.620Z,49.40
2023-05-05T02:12:05.665Z,48.92
2023-05-05T02:13:05.790Z,48.81
2023-05-05T02:14:05.710Z,48.78
2023-05-05T02:15:05.751Z,48.14
2023-05-05T02:16:05.822Z,48.05
2023-05-05T02:17:05.768Z,48.87
2023-05-05T02:18:05.868Z,48.69
2023-05-05T02:19:05.822Z,48.72
2023-05-05T02:20:05.933Z,48.95
2023-05-05T02:21:05.882Z,48.42
2023-05-05T02:22:05.907Z,48.61
2023-05-05T02:23:05.983Z,48.72
2023-05-05T02:24:06.020Z,48.77
2023-05-05T02:25:05.992Z,48.68
2023-05-05T02:26:06.046Z,48.10
2023-05-05T02:27:06.067Z,48.14
2023-05-05T02:28:06.084Z,47.93
2023-05-05T02:29:06.126Z,47.91
2023-05-05T02:30:06.418Z,47.70
2023-05-05T02:31:06.237Z,47.52
2023-05-05T02:32:06.246Z,47.12
2023-05-05T02:33:06.369Z,47.68
2023-05-05T02:34:06.319Z,47.98
2023-05-05T02:35:06.367Z,48.45
2023-05-05T02:36:06.398Z,48.81
2023-05-05T02:37:06.448Z,49.18
2023-05-05T02:38:06.464Z,48.67
2023-05-05T02:39:06.517Z,48.03
2023-05-05T02:40:06.799Z,47.33
2023-05-05T02:41:06.552Z,47.90
2023-05-05T02:42:06.620Z,48.09
2023-05-05T02:43:06.780Z,47.98
2023-05-05T02:44:06.724Z,48.52
2023-05-05T02:45:06.871Z,48.60
2023-05-05T02:46:06.839Z,48.08
2023-05-05T02:47:07.697Z,48.18
2023-05-05T02:48:06.941Z,47.87
2023-05-05T02:49:06.931Z,47.22
2023-05-05T02:50:07.178Z,47.24
2023-05-05T02:51:06.994Z,47.16
2023-05-05T02:52:07.015Z,47.03
2023-05-05T02:53:07.046Z,47.98
2023-05-05T02:54:07.049Z,47.91
2023-05-05T02:55:07.085Z,48.06
2023-05-05T02:56:07.101Z,46.92
2023-05-05T02:57:07.131Z,47.59
2023-05-05T02:58:07.165Z,48.27
2023-05-05T02:59:07.184Z,48.31
2023-05-05T03:00:07.329Z,48.83
2023-05-05T03:01:07.323Z,48.57
2023-05-05T03:02:07.288Z,49.14
2023-05-05T03:03:07.393Z,49.83
2023-05-05T03:04:07.397Z,49.98
2023-05-05T03:05:07.450Z,50.58
2023-05-05T03:06:07.494Z,50.00
2023-05-05T03:07:07.525Z,49.91
2023-05-05T03:08:07.566Z,49.53
2023-05-05T03:09:07.585Z,49.53
2023-05-05T03:10:08.024Z,49.76
2023-05-05T03:11:07.698Z,49.53
2023-05-05T03:12:07.733Z,50.50
2023-05-05T03:13:07.910Z,51.50
2023-05-05T03:14:07.823Z,50.54
2023-05-05T03:15:07.879Z,50.80
2023-05-05T03:16:07.924Z,50.67
2023-05-05T03:17:07.964Z,51.31
2023-05-05T03:18:08.023Z,50.71
2023-05-05T03:19:08.079Z,52.73
2023-05-05T03:20:08.329Z,52.34
2023-05-05T03:21:08.238Z,52.96
2023-05-05T03:22:08.302Z,52.47
2023-05-05T03:23:08.379Z,52.58
2023-05-05T03:24:08.448Z,52.87
2023-05-05T03:25:08.531Z,53.11
2023-05-05T03:26:08.587Z,52.80
2023-05-05T03:27:08.657Z,52.70
2023-05-05T03:28:08.696Z,53.62
2023-05-05T03:29:08.756Z,54.11
2023-05-05T03:30:08.990Z,53.66
2023-05-05T03:31:08.890Z,52.80
2023-05-05T03:32:08.998Z,52.01
2023-05-05T03:33:09.188Z,51.64
2023-05-05T03:34:09.106Z,51.54
2023-05-05T03:35:09.162Z,51.42
2023-05-05T03:36:09.231Z,50.98
2023-05-05T03:37:09.309Z,49.98
2023-05-05T03:38:09.355Z,50.31
2023-05-05T03:39:09.491Z,50.61
2023-05-05T03:40:09.631Z,50.80
2023-05-05T03:41:09.547Z,50.68
2023-05-05T03:42:09.608Z,51.97
2023-05-05T03:43:09.676Z,51.87
2023-05-05T03:44:09.724Z,52.18
2023-05-05T03:45:09.788Z,53.01
2023-05-05T03:46:09.946Z,53.18
2023-05-05T03:47:09.912Z,52.84
2023-05-05T03:48:10.031Z,51.62
2023-05-05T03:49:10.042Z,50.85
2023-05-05T03:50:10.200Z,50.55
2023-05-05T03:51:10.097Z,50.34
2023-05-05T03:52:10.137Z,49.93
2023-05-05T03:53:10.188Z,50.11
2023-05-05T03:54:10.258Z,50.54
2023-05-05T03:55:10.326Z,50.64
2023-05-05T03:56:10.393Z,50.09
2023-05-05T03:57:10.452Z,49.77
2023-05-05T03:58:10.508Z,50.31
2023-05-05T03:59:10.617Z,50.13
2023-05-05T04:00:10.616Z,50.49
2023-05-05T04:01:10.666Z,50.79
2023-05-05T04:02:10.752Z,51.75
2023-05-05T04:03:11.053Z,51.69
2023-05-05T04:04:10.913Z,52.02
2023-05-05T04:05:10.907Z,51.49
2023-05-05T04:06:10.986Z,51.49
2023-05-05T04:07:11.035Z,51.34
2023-05-05T04:08:11.113Z,51.07
2023-05-05T04:09:11.174Z,50.75
2023-05-05T04:10:11.231Z,51.23
2023-05-05T04:11:11.303Z,50.90
2023-05-05T04:12:11.347Z,50.51
2023-05-05T04:13:11.473Z,49.97
2023-05-05T04:14:11.453Z,49.55
2023-05-05T04:15:11.524Z,49.93
2023-05-05T04:16:11.589Z,50.80
2023-05-05T04:17:11.632Z,51.12
2023-05-05T04:18:11.703Z,51.17
2023-05-05T04:19:11.762Z,50.87
2023-05-05T04:20:11.855Z,51.51
2023-05-05T04:21:11.908Z,51.88
2023-05-05T04:22:11.967Z,51.99
2023-05-05T04:23:12.048Z,52.53
2023-05-05T04:24:12.112Z,52.54
2023-05-05T04:25:12.182Z,52.96
2023-05-05T04:26:12.261Z,51.90
2023-05-05T04:27:12.336Z,52.97
2023-05-05T04:28:12.431Z,52.77
2023-05-05T04:29:12.479Z,52.33
2023-05-05T04:30:12.544Z,52.24
2023-05-05T04:31:12.645Z,52.94
2023-05-05T04:32:12.680Z,53.34
2023-05-05T04:33:12.738Z,52.12
2023-05-05T04:34:12.780Z,51.60
2023-05-05T04:35:12.875Z,51.35
2023-05-05T04:36:12.919Z,51.14
2023-05-05T04:37:12.988Z,51.65
2023-05-05T04:38:13.062Z,51.66
2023-05-05T04:39:13.100Z,51.24
2023-05-05T04:40:13.111Z,50.72
2023-05-05T04:41:13.132Z,51.07
2023-05-05T04:42:13.152Z,51.57
2023-05-05T04:43:13.175Z,50.56
2023-05-05T04:44:13.245Z,50.60
2023-05-05T04:45:13.317Z,50.59
2023-05-05T04:46:13.371Z,51.27
2023-05-05T04:47:14.763Z,51.16
2023-05-05T04:48:13.504Z,50.64
2023-05-05T04:49:13.560Z,49.79
2023-05-05T04:50:13.631Z,49.22
2023-05-05T04:51:13.686Z,49.55
2023-05-05T04:52:13.740Z,49.80
2023-05-05T04:53:13.807Z,49.59
2023-05-05T04:54:13.853Z,49.66
2023-05-05T04:55:14.724Z,49.39
2023-05-05T04:56:13.978Z,48.31
2023-05-05T04:57:14.045Z,48.41
2023-05-05T04:58:14.110Z,47.93
2023-05-05T04:59:14.170Z,47.70
2023-05-05T05:00:14.218Z,48.93
2023-05-05T05:01:14.261Z,49.19
2023-05-05T05:02:14.386Z,50.10
2023-05-05T05:03:14.454Z,51.63
2023-05-05T05:04:14.417Z,51.85
2023-05-05T05:05:14.490Z,52.16
2023-05-05T05:06:14.557Z,52.31
2023-05-05T05:07:14.599Z,52.83
2023-05-05T05:08:14.662Z,53.54
2023-05-05T05:09:14.739Z,53.26
2023-05-05T05:10:14.816Z,53.26
2023-05-05T05:11:14.904Z,54.15
2023-05-05T05:12:14.983Z,54.77
2023-05-05T05:13:15.120Z,55.56
2023-05-05T05:14:15.176Z,56.38
2023-05-05T05:15:15.229Z,55.83
2023-05-05T05:16:15.373Z,55.39
2023-05-05T05:17:15.363Z,55.37
2023-05-05T05:18:15.420Z,55.13
2023-05-05T05:19:15.521Z,55.11
2023-05-05T05:20:15.582Z,55.13
2023-05-05T05:21:15.673Z,55.26
2023-05-05T05:22:15.712Z,54.64
2023-05-05T05:23:15.752Z,55.06
2023-05-05T05:24:15.782Z,54.82
2023-05-05T05:25:15.833Z,54.99
2023-05-05T05:26:15.837Z,54.75
2023-05-05T05:27:15.863Z,54.80
2023-05-05T05:28:15.879Z,55.58
2023-05-05T05:29:15.928Z,55.55
2023-05-05T05:30:15.999Z,55.19
2023-05-05T05:31:16.048Z,55.12
2023-05-05T05:32:16.162Z,54.38
2023-05-05T05:33:16.149Z,53.61
2023-05-05T05:34:16.212Z,51.82
2023-05-05T05:35:17.160Z,50.61
2023-05-05T05:36:16.802Z,49.64
2023-05-05T05:37:16.430Z,49.79
2023-05-05T05:38:16.530Z,49.73
2023-05-05T05:39:16.498Z,49.62
2023-05-05T05:40:16.540Z,49.10
2023-05-05T05:41:16.568Z,49.82
2023-05-05T05:42:16.653Z,50.07
2023-05-05T05:43:16.701Z,49.93
2023-05-05T05:44:16.767Z,48.66
2023-05-05T05:45:16.820Z,48.91
2023-05-05T05:46:16.883Z,48.95
2023-05-05T05:47:16.957Z,48.75
2023-05-05T05:48:16.979Z,47.94
2023-05-05T05:49:17.035Z,48.02
2023-05-05T05:50:17.094Z,49.35
2023-05-05T05:51:17.164Z,48.79
2023-05-05T05:52:17.221Z,48.96
2023-05-05T05:53:17.291Z,49.01
2023-05-05T05:54:17.327Z,49.09
2023-05-05T05:55:17.392Z,50.78
2023-05-05T05:56:17.442Z,50.24
2023-05-05T05:57:17.514Z,49.83
2023-05-05T05:58:17.567Z,49.37
2023-05-05T05:59:17.611Z,48.63
2023-05-05T06:00:17.642Z,49.21
2023-05-05T06:01:17.671Z,49.14
2023-05-05T06:02:17.720Z,48.03
2023-05-05T06:03:17.851Z,47.48
2023-05-05T06:04:17.726Z,47.97
2023-05-05T06:05:17.743Z,48.73
2023-05-05T06:06:17.794Z,48.54
2023-05-05T06:07:17.829Z,47.03
2023-05-05T06:08:17.889Z,46.17
2023-05-05T06:09:17.903Z,46.28
2023-05-05T06:10:27.257Z,46.69
2023-05-05T06:11:18.949Z,47.54
2023-05-05T06:12:18.765Z,48.50
2023-05-05T06:13:18.776Z,48.59
2023-05-05T06:14:18.251Z,48.17
2023-05-05T06:15:17.903Z,47.80
2023-05-05T06:16:17.917Z,47.46
2023-05-05T06:17:17.886Z,46.01
2023-05-05T06:18:18.018Z,46.22
2023-05-05T06:19:17.903Z,46.21
2023-05-05T06:20:17.893Z,46.54
2023-05-05T06:21:17.859Z,46.26
2023-05-05T06:22:17.863Z,45.39
2023-05-05T06:23:17.935Z,45.53
2023-05-05T06:24:18.009Z,44.96
2023-05-05T06:25:18.045Z,45.52
2023-05-05T06:26:18.112Z,45.21
2023-05-05T06:27:18.173Z,45.23
2023-05-05T06:28:18.200Z,44.99
2023-05-05T06:29:18.242Z,45.11
2023-05-05T06:30:18.309Z,44.52
2023-05-05T06:31:18.390Z,45.09
2023-05-05T06:32:18.385Z,45.12
2023-05-05T06:33:18.410Z,45.16
2023-05-05T06:34:18.483Z,44.29
2023-05-05T06:35:18.542Z,44.91
2023-05-05T06:36:18.647Z,45.22
2023-05-05T06:37:18.679Z,45.49
2023-05-05T06:38:18.733Z,45.79
2023-05-05T06:39:19.761Z,45.97
2023-05-05T06:40:18.809Z,45.22
2023-05-05T06:41:18.809Z,45.29
2023-05-05T06:42:18.859Z,44.94
2023-05-05T06:43:18.909Z,44.86
2023-05-05T06:44:18.970Z,44.02
2023-05-05T06:45:19.032Z,44.32
2023-05-05T06:46:19.167Z,44.53
2023-05-05T06:47:19.180Z,44.26
2023-05-05T06:48:19.207Z,44.33
2023-05-05T06:49:19.244Z,44.05
2023-05-05T06:50:19.305Z,43.58
2023-05-05T06:51:19.268Z,43.51
2023-05-05T06:52:19.293Z,44.05
2023-05-05T06:53:19.319Z,43.67
2023-05-05T06:54:19.352Z,43.58
2023-05-05T06:55:19.456Z,43.79
2023-05-05T06:56:19.443Z,44.30
2023-05-05T06:57:19.549Z,44.34
2023-05-05T06:58:19.560Z,43.68
2023-05-05T06:59:19.572Z,43.86
2023-05-05T07:00:19.597Z,43.88
2023-05-05T07:01:19.699Z,43.55
2023-05-05T07:02:19.653Z,43.49
2023-05-05T07:03:19.760Z,43.55
2023-05-05T07:04:19.684Z,43.54
2023-05-05T07:05:19.655Z,42.79
2023-05-05T07:06:19.633Z,42.89
2023-05-05T07:07:19.629Z,42.69
2023-05-05T07:08:19.625Z,42.73
2023-05-05T07:09:19.603Z,42.63
2023-05-05T07:10:19.617Z,42.34
2023-05-05T07:11:19.873Z,42.30
2023-05-05T07:12:19.644Z,41.94
2023-05-05T07:13:19.734Z,41.89
2023-05-05T07:14:20.960Z,41.68
2023-05-05T07:15:28.509Z,41.60
2023-05-05T07:16:20.603Z,41.40
2023-05-05T07:17:19.532Z,41.43
2023-05-05T07:18:19.551Z,41.84
2023-05-05T07:19:19.473Z,41.99
2023-05-05T07:20:19.437Z,41.28
2023-05-05T07:21:19.401Z,40.75
2023-05-05T07:22:19.372Z,40.40
2023-05-05T07:23:19.324Z,40.54
2023-05-05T07:24:20.310Z,40.44
2023-05-05T07:25:19.273Z,40.66
2023-05-05T07:26:19.257Z,40.57
2023-05-05T07:27:19.328Z,40.30
2023-05-05T07:28:19.300Z,40.29
2023-05-05T07:29:19.327Z,40.20
2023-05-05T07:30:19.869Z,40.03
2023-05-05T07:31:19.340Z,39.89
2023-05-05T07:32:19.442Z,39.77
2023-05-05T07:33:19.261Z,39.53
2023-05-05T07:34:19.240Z,39.45
2023-05-05T07:35:19.197Z,39.60
2023-05-05T07:36:19.150Z,38.92
2023-05-05T07:37:19.110Z,39.25
2023-05-05T07:38:19.077Z,39.38
2023-05-05T07:39:19.017Z,39.12
2023-05-05T07:40:18.970Z,39.13
2023-05-05T07:41:18.981Z,38.80
2023-05-05T07:42:18.945Z,38.53
2023-05-05T07:43:19.070Z,38.87
2023-05-05T07:44:18.907Z,38.51
2023-05-05T07:45:18.899Z,38.49
2023-05-05T07:46:18.923Z,38.66
2023-05-05T07:47:18.920Z,38.43
2023-05-05T07:48:18.887Z,38.52
2023-05-05T07:49:18.866Z,38.57
2023-05-05T07:50:18.836Z,38.37
2023-05-05T07:51:18.816Z,37.91
2023-05-05T07:52:19.469Z,37.77
2023-05-05T07:53:18.716Z,37.84
2023-05-05T07:54:18.633Z,37.47
2023-05-05T07:55:18.546Z,37.87
2023-05-05T07:56:19.336Z,37.75
2023-05-05T07:57:18.615Z,38.01
2023-05-05T07:58:18.566Z,36.75
2023-05-05T07:59:18.665Z,36.94
2023-05-05T08:00:18.457Z,36.47
2023-05-05T08:01:18.542Z,36.60
2023-05-05T08:02:18.685Z,36.52
2023-05-05T08:03:18.812Z,36.31
2023-05-05T08:04:18.851Z,35.95
2023-05-05T08:05:18.920Z,36.47
2023-05-05T08:06:19.027Z,37.01
2023-05-05T08:07:19.149Z,37.20
2023-05-05T08:08:19.241Z,37.13
2023-05-05T08:09:19.366Z,36.91
2023-05-05T08:10:19.414Z,36.64
2023-05-05T08:11:19.512Z,36.65
2023-05-05T08:12:19.603Z,36.63
2023-05-05T08:13:19.781Z,35.74
2023-05-05T08:14:19.836Z,35.63
2023-05-05T08:15:20.039Z,35.74
2023-05-05T08:16:20.883Z,35.58
2023-05-05T08:17:20.038Z,35.67
2023-05-05T08:18:20.008Z,35.80
2023-05-05T08:19:28.906Z,38.18
2023-05-05T08:20:20.843Z,36.78
2023-05-05T08:21:19.737Z,35.90
2023-05-05T08:22:19.628Z,35.48
2023-05-05T08:23:19.552Z,35.66
2023-05-05T08:24:19.436Z,35.63
2023-05-05T08:25:19.334Z,36.32
2023-05-05T08:26:19.221Z,36.39
2023-05-05T08:27:19.136Z,35.88
2023-05-05T08:28:19.158Z,35.33
2023-05-05T08:29:19.272Z,35.63
2023-05-05T08:30:19.374Z,35.14
2023-05-05T08:31:19.570Z,35.15
2023-05-05T08:32:19.547Z,35.24
2023-05-05T08:33:19.668Z,34.80
2023-05-05T08:34:19.735Z,35.59
2023-05-05T08:35:19.837Z,35.73
2023-05-05T08:36:20.022Z,35.24
2023-05-05T08:37:20.030Z,34.74
2023-05-05T08:38:20.314Z,34.83
2023-05-05T08:39:20.221Z,35.59
2023-05-05T08:40:20.315Z,35.70
2023-05-05T08:41:20.258Z,35.65
2023-05-05T08:42:35.577Z,35.70
2023-05-05T08:43:21.084Z,35.53
2023-05-05T08:44:19.973Z,35.18
2023-05-05T08:45:19.884Z,34.42
2023-05-05T08:46:19.790Z,34.29
2023-05-05T08:47:20.346Z,35.49
2023-05-05T08:48:19.585Z,35.69
2023-05-05T08:49:19.483Z,34.75
2023-05-05T08:50:19.375Z,34.42
2023-05-05T08:51:19.422Z,34.19
2023-05-05T08:52:19.515Z,34.27
2023-05-05T08:53:19.602Z,35.00
2023-05-05T08:54:19.690Z,34.26
2023-05-05T08:55:19.783Z,34.18
2023-05-05T08:56:19.883Z,33.63
2023-05-05T08:57:19.987Z,34.23
2023-05-05T08:58:20.094Z,34.62
2023-05-05T08:59:20.205Z,33.90
2023-05-05T09:00:20.324Z,33.90
2023-05-05T09:01:20.436Z,34.22
2023-05-05T09:02:20.533Z,34.16
2023-05-05T09:03:20.782Z,34.58
2023-05-05T09:04:20.761Z,34.62
2023-05-05T09:05:20.865Z,34.94
2023-05-05T09:06:20.989Z,36.48
2023-05-05T09:07:21.067Z,36.37
2023-05-05T09:08:21.177Z,34.40
2023-05-05T09:09:21.298Z,34.82
2023-05-05T09:10:21.553Z,33.90
2023-05-05T09:11:21.558Z,33.80
2023-05-05T09:12:21.676Z,34.01
2023-05-05T09:13:21.809Z,34.18
2023-05-05T09:14:21.900Z,34.00
2023-05-05T09:15:22.026Z,34.64
2023-05-05T09:16:22.162Z,34.93
2023-05-05T09:17:22.263Z,34.09
2023-05-05T09:18:22.354Z,34.30
2023-05-05T09:19:22.543Z,34.17
2023-05-05T09:20:22.550Z,34.79
2023-05-05T09:21:22.673Z,34.21
2023-05-05T09:22:22.725Z,34.95
2023-05-05T09:23:22.828Z,35.03
2023-05-05T09:24:22.893Z,35.21
2023-05-05T09:25:22.982Z,35.30
2023-05-05T09:26:23.175Z,35.31
2023-05-05T09:27:23.737Z,34.39
2023-05-05T09:28:23.129Z,34.12
2023-05-05T09:29:23.001Z,34.65
2023-05-05T09:30:22.844Z,35.36
2023-05-05T09:31:22.857Z,33.78
2023-05-05T09:32:22.726Z,34.00
2023-05-05T09:33:22.507Z,35.21
2023-05-05T09:34:22.418Z,33.94
2023-05-05T09:35:22.333Z,34.78
2023-05-05T09:36:22.256Z,34.30
2023-05-05T09:37:22.153Z,33.78
2023-05-05T09:38:22.056Z,33.26
2023-05-05T09:39:21.952Z,33.11
2023-05-05T09:40:21.980Z,33.19
2023-05-05T09:41:21.711Z,32.32
2023-05-05T09:42:21.579Z,34.42
2023-05-05T09:43:21.485Z,32.83
2023-05-05T09:44:21.372Z,33.15
2023-05-05T09:45:21.269Z,33.05
2023-05-05T09:46:22.863Z,32.67
2023-05-05T09:47:29.627Z,33.67
2023-05-05T09:48:22.049Z,33.40
2023-05-05T09:49:20.737Z,32.92
2023-05-05T09:50:20.730Z,33.45
2023-05-05T09:51:20.531Z,32.77
2023-05-05T09:52:21.245Z,32.65
2023-05-05T09:53:20.195Z,31.87
2023-05-05T09:54:20.037Z,31.65
2023-05-05T09:55:19.893Z,33.79
2023-05-05T09:56:19.771Z,33.58
2023-05-05T09:57:19.618Z,32.77
2023-05-05T09:58:20.055Z,31.94
2023-05-05T09:59:19.414Z,31.57
2023-05-05T10:00:20.293Z,31.35
2023-05-05T10:01:19.389Z,31.53
2023-05-05T10:02:19.182Z,32.49
2023-05-05T10:03:19.099Z,31.69
2023-05-05T10:04:19.020Z,31.95
2023-05-05T10:05:19.914Z,31.98
2023-05-05T10:06:18.828Z,31.62
2023-05-05T10:07:18.795Z,31.41
2023-05-05T10:08:18.649Z,30.66
2023-05-05T10:09:18.528Z,32.12
2023-05-05T10:10:18.530Z,31.55
2023-05-05T10:11:18.316Z,30.95
2023-05-05T10:12:18.203Z,31.18
2023-05-05T10:13:18.773Z,31.55
2023-05-05T10:14:17.971Z,31.79
2023-05-05T10:15:17.842Z,32.40
2023-05-05T10:16:17.798Z,31.84
2023-05-05T10:17:17.617Z,31.93
2023-05-05T10:18:17.517Z,32.03
2023-05-05T10:19:17.385Z,32.65
2023-05-05T10:20:17.315Z,31.85
2023-05-05T10:21:17.209Z,31.34
2023-05-05T10:22:17.118Z,31.18
2023-05-05T10:23:17.067Z,30.65
2023-05-05T10:24:16.878Z,31.16
2023-05-05T10:25:16.765Z,31.59
2023-05-05T10:26:16.638Z,30.73
2023-05-05T10:27:16.567Z,30.80
2023-05-05T10:28:16.730Z,29.34
2023-05-05T10:29:16.829Z,29.86
2023-05-05T10:30:16.950Z,29.32
2023-05-05T10:31:25.714Z,28.51
2023-05-05T10:32:47.290Z,27.83
2023-05-05T10:33:30.373Z,28.14
2023-05-05T10:34:17.832Z,28.14
2023-05-05T10:35:16.513Z,29.33
2023-05-05T10:36:16.329Z,30.72
2023-05-05T10:37:16.177Z,29.36
2023-05-05T10:38:16.021Z,28.48
2023-05-05T10:39:15.904Z,27.58
2023-05-05T10:40:15.716Z,26.74
2023-05-05T10:41:15.522Z,27.37
2023-05-05T10:42:15.368Z,27.54
2023-05-05T10:43:15.213Z,28.18
2023-05-05T10:44:15.040Z,29.26
2023-05-05T10:45:14.910Z,29.54
2023-05-05T10:46:14.783Z,27.47
2023-05-05T10:47:14.643Z,27.64
2023-05-05T10:48:14.842Z,27.99
2023-05-05T10:49:14.843Z,28.23
2023-05-05T10:50:14.883Z,27.31
2023-05-05T10:51:23.938Z,26.91
2023-05-05T10:52:15.850Z,26.88
2023-05-05T10:53:14.676Z,26.49
2023-05-05T10:54:14.536Z,26.94
2023-05-05T10:55:14.481Z,27.91
2023-05-05T10:56:14.228Z,28.04
2023-05-05T10:57:14.064Z,27.79
2023-05-05T10:58:13.901Z,27.30
2023-05-05T10:59:14.308Z,28.91
2023-05-05T11:00:15.057Z,27.39
2023-05-05T11:01:13.410Z,27.13
2023-05-05T11:02:13.332Z,27.57
2023-05-05T11:03:13.113Z,27.87
2023-05-05T11:04:12.875Z,27.65
2023-05-05T11:05:12.680Z,27.88
2023-05-05T11:06:12.511Z,28.10
2023-05-05T11:07:14.971Z,26.35
2023-05-05T11:08:12.160Z,26.78
2023-05-05T11:09:11.997Z,27.50
2023-05-05T11:10:11.946Z,26.69
2023-05-05T11:11:11.704Z,26.70
2023-05-05T11:12:11.462Z,28.95
2023-05-05T11:13:11.291Z,28.12
2023-05-05T11:14:11.106Z,27.71
2023-05-05T11:15:10.942Z,28.09
2023-05-05T11:16:11.003Z,27.26
2023-05-05T11:17:11.037Z,27.58
2023-05-05T11:18:11.222Z,28.71
2023-05-05T11:19:11.287Z,27.71
2023-05-05T11:20:11.334Z,26.41
2023-05-05T11:21:11.489Z,25.79
2023-05-05T11:22:11.600Z,25.80
2023-05-05T11:23:12.597Z,25.37
2023-05-05T11:24:11.600Z,25.45
2023-05-05T11:25:11.431Z,25.00
2023-05-05T11:26:11.281Z,25.31
2023-05-05T11:27:11.357Z,25.72
2023-05-05T11:28:11.071Z,26.89
2023-05-05T11:29:10.900Z,25.91
2023-05-05T11:30:10.987Z,25.85
2023-05-05T11:31:10.567Z,25.38
2023-05-05T11:32:10.378Z,24.72
2023-05-05T11:33:10.214Z,24.74
2023-05-05T11:34:10.025Z,27.47
2023-05-05T11:35:09.846Z,25.78
2023-05-05T11:36:09.673Z,25.24
2023-05-05T11:37:09.585Z,24.91
2023-05-05T11:38:09.364Z,24.99
2023-05-05T11:39:09.201Z,25.60
2023-05-05T11:40:09.178Z,26.43
2023-05-05T11:41:09.139Z,25.41
2023-05-05T11:42:10.687Z,24.14
2023-05-05T11:43:08.789Z,24.34
2023-05-05T11:44:08.504Z,25.26
2023-05-05T11:45:08.386Z,24.89
2023-05-05T11:46:08.330Z,23.98
2023-05-05T11:47:08.124Z,23.73
2023-05-05T11:48:08.204Z,24.02
2023-05-05T11:49:07.842Z,23.10
2023-05-05T11:50:07.858Z,23.40
2023-05-05T11:51:07.535Z,24.93
2023-05-05T11:52:07.397Z,24.08
2023-05-05T11:53:07.259Z,23.67
2023-05-05T11:54:07.108Z,23.58
2023-05-05T11:55:06.981Z,23.09
2023-05-05T11:56:06.790Z,23.65
2023-05-05T11:57:06.639Z,24.21
2023-05-05T11:58:06.461Z,24.28
2023-05-05T11:59:06.405Z,23.91
2023-05-05T12:01:06.545Z,24.56
2023-05-05T12:02:06.502Z,24.30
2023-05-05T12:03:06.838Z,24.75
2023-05-05T12:04:06.829Z,24.08
2023-05-05T12:05:06.872Z,23.67
2023-05-05T12:06:06.955Z,24.42
2023-05-05T12:07:07.044Z,24.04
2023-05-05T12:08:07.138Z,24.27
2023-05-05T12:09:07.326Z,23.82
2023-05-05T12:10:07.603Z,23.71
2023-05-05T12:11:07.200Z,22.79
2023-05-05T12:12:07.052Z,23.26
2023-05-05T12:13:06.960Z,22.77
2023-05-05T12:14:06.859Z,22.92
2023-05-05T12:15:07.027Z,22.65
2023-05-05T12:16:07.080Z,22.51
2023-05-05T12:17:07.108Z,22.69
2023-05-05T12:18:07.225Z,23.05
2023-05-05T12:19:07.281Z,22.11
2023-05-05T12:20:07.596Z,21.46
2023-05-05T12:21:07.169Z,23.98
2023-05-05T12:22:07.004Z,23.37
2023-05-05T12:23:06.846Z,22.07
2023-05-05T12:24:06.673Z,23.82
2023-05-05T12:25:06.714Z,23.12
2023-05-05T12:26:06.746Z,23.14
2023-05-05T12:27:06.831Z,24.13
2023-05-05T12:28:06.998Z,21.84
2023-05-05T12:29:06.964Z,21.30
2023-05-05T12:30:07.207Z,21.79
2023-05-05T12:31:07.279Z,21.70
2023-05-05T12:32:07.293Z,21.91
2023-05-05T12:33:07.298Z,21.86
2023-05-05T12:34:07.360Z,22.99
2023-05-05T12:35:07.448Z,22.58
2023-05-05T12:36:07.523Z,22.50
2023-05-05T12:37:07.620Z,22.64
2023-05-05T12:38:07.648Z,22.11
2023-05-05T12:39:07.818Z,22.32
2023-05-05T12:40:08.059Z,22.47
2023-05-05T12:41:07.967Z,22.16
2023-05-05T12:42:08.023Z,23.47
2023-05-05T12:43:08.086Z,22.42
2023-05-05T12:44:08.187Z,21.97
2023-05-05T12:45:08.281Z,21.36
2023-05-05T12:46:08.415Z,21.12
2023-05-05T12:47:08.515Z,22.80
2023-05-05T12:48:08.557Z,22.75
2023-05-05T12:49:08.639Z,22.55
2023-05-05T12:50:08.875Z,22.44
2023-05-05T12:51:08.745Z,22.69
2023-05-05T12:52:08.837Z,21.68
2023-05-05T12:53:08.988Z,21.65